Accueil
METAR-TAF:

METAR-TAF

Aéroports :

Buriram, Thaïlande

latitude: 15-13-46N, longitude: 103-15-04E, altitude: 180 m

Observation

Le bulletin a été fait il y a 1 heure et 1 minutes, à 00:00 UTC
Vent 7 kt de nord-est
Température 20°C
Humidité 78%
Pression 1021 hPa
Visibilité: 8000 m

METAR: VTUO 220000Z 05007KT 8000 NSC 20/16 Q1021 NOSIG

Heure: 08:01 (01:01 UTC)

Prévision

Le bulletin a été fait il y a 2 heures et 1 minutes, à 23:00 UTC
Prévision valable du 22 à 00 UTC au 22 à 24 UTC
Vent 10 kt de est/nord-est
Visibilité: 9000 m

TAF: VTUO 212300Z 2200/2224 06010KT 9000 NSC

Observations et prévisions météorologiques de plus de 4000 aéroports (messages METAR et TAF).

Les stations disponibles sont représentées par des disques jaunes et rouges sur la carte.

Passer la souris dessus pour voir le nom de la station.

Cliquer dessus pour voir les observations et prévisions météorologiques.

Pour changer de carte: cliquez sur les boutons verts avec une croix noire pour zoomer, sur le bouton vert avec un tiret pour effectuer un zoom arrière, ou sur les flèches vertes pour les cartes adjacentes.


METAR-TAF: